sensor_id;sensor_type;location;lat;lon;timestamp;temperature;humidity
19928;DHT22;10126;50.876;4.470;2023-08-06T00:01:22;16.10;99.90
19928;DHT22;10126;50.876;4.470;2023-08-06T00:03:23;16.10;99.90
19928;DHT22;10126;50.876;4.470;2023-08-06T00:05:24;15.90;99.90
19928;DHT22;10126;50.876;4.470;2023-08-06T00:07:24;15.90;99.90
19928;DHT22;10126;50.876;4.470;2023-08-06T00:09:25;16.00;99.90
19928;DHT22;10126;50.876;4.470;2023-08-06T00:11:26;15.90;99.90
19928;DHT22;10126;50.876;4.470;2023-08-06T00:13:26;16.00;99.90
19928;DHT22;10126;50.876;4.470;2023-08-06T00:15:27;16.00;99.90
19928;DHT22;10126;50.876;4.470;2023-08-06T00:17:27;16.10;99.90
19928;DHT22;10126;50.876;4.470;2023-08-06T00:19:28;16.20;99.90
19928;DHT22;10126;50.876;4.470;2023-08-06T00:21:29;16.20;99.90
19928;DHT22;10126;50.876;4.470;2023-08-06T00:23:29;16.30;99.90
19928;DHT22;10126;50.876;4.470;2023-08-06T00:25:30;16.40;99.90
19928;DHT22;10126;50.876;4.470;2023-08-06T00:27:39;16.50;99.90
19928;DHT22;10126;50.876;4.470;2023-08-06T00:29:49;16.50;99.90
19928;DHT22;10126;50.876;4.470;2023-08-06T00:31:52;16.60;99.90
19928;DHT22;10126;50.876;4.470;2023-08-06T00:33:53;16.70;99.90
19928;DHT22;10126;50.876;4.470;2023-08-06T00:35:56;16.70;99.90
19928;DHT22;10126;50.876;4.470;2023-08-06T00:37:57;16.70;99.90
19928;DHT22;10126;50.876;4.470;2023-08-06T00:40:00;16.70;99.90
19928;DHT22;10126;50.876;4.470;2023-08-06T00:42:03;16.70;99.90
19928;DHT22;10126;50.876;4.470;2023-08-06T00:44:04;16.70;99.90
19928;DHT22;10126;50.876;4.470;2023-08-06T00:46:05;16.70;99.90
19928;DHT22;10126;50.876;4.470;2023-08-06T00:48:06;16.70;99.90
19928;DHT22;10126;50.876;4.470;2023-08-06T00:50:08;16.70;99.90
19928;DHT22;10126;50.876;4.470;2023-08-06T00:52:12;16.60;99.90
19928;DHT22;10126;50.876;4.470;2023-08-06T00:54:15;16.50;99.90
19928;DHT22;10126;50.876;4.470;2023-08-06T00:56:19;16.60;99.90
19928;DHT22;10126;50.876;4.470;2023-08-06T00:58:20;16.60;99.90
19928;DHT22;10126;50.876;4.470;2023-08-06T01:00:24;16.60;99.90
19928;DHT22;10126;50.876;4.470;2023-08-06T01:02:24;16.70;99.90
19928;DHT22;10126;50.876;4.470;2023-08-06T01:04:25;16.70;99.90
19928;DHT22;10126;50.876;4.470;2023-08-06T01:06:48;16.70;99.90
19928;DHT22;10126;50.876;4.470;2023-08-06T01:09:01;16.60;99.90
19928;DHT22;10126;50.876;4.470;2023-08-06T01:11:20;16.60;99.90
19928;DHT22;10126;50.876;4.470;2023-08-06T01:13:51;16.50;99.90
19928;DHT22;10126;50.876;4.470;2023-08-06T01:15:55;16.60;99.90
19928;DHT22;10126;50.876;4.470;2023-08-06T01:18:00;16.60;99.90
19928;DHT22;10126;50.876;4.470;2023-08-06T01:20:01;16.50;99.90
19928;DHT22;10126;50.876;4.470;2023-08-06T01:22:02;16.60;99.90
19928;DHT22;10126;50.876;4.470;2023-08-06T01:24:10;16.70;99.90
19928;DHT22;10126;50.876;4.470;2023-08-06T01:26:35;16.70;99.90
19928;DHT22;10126;50.876;4.470;2023-08-06T01:30:55;16.70;99.90
19928;DHT22;10126;50.876;4.470;2023-08-06T01:33:00;16.60;99.90
19928;DHT22;10126;50.876;4.470;2023-08-06T01:35:04;16.70;99.90
19928;DHT22;10126;50.876;4.470;2023-08-06T01:37:05;16.70;99.90
19928;DHT22;10126;50.876;4.470;2023-08-06T01:39:06;16.80;99.90
19928;DHT22;10126;50.876;4.470;2023-08-06T01:41:07;16.70;99.90
19928;DHT22;10126;50.876;4.470;2023-08-06T01:43:10;16.70;99.90
19928;DHT22;10126;50.876;4.470;2023-08-06T01:45:10;16.60;99.90
19928;DHT22;10126;50.876;4.470;2023-08-06T01:47:11;16.70;99.90
19928;DHT22;10126;50.876;4.470;2023-08-06T01:49:12;16.90;99.90
19928;DHT22;10126;50.876;4.470;2023-08-06T01:51:13;16.80;99.90
19928;DHT22;10126;50.876;4.470;2023-08-06T01:53:14;16.80;99.90
19928;DHT22;10126;50.876;4.470;2023-08-06T01:55:15;16.70;99.90
19928;DHT22;10126;50.876;4.470;2023-08-06T01:57:15;16.60;99.90
19928;DHT22;10126;50.876;4.470;2023-08-06T01:59:16;16.70;99.90
19928;DHT22;10126;50.876;4.470;2023-08-06T02:01:17;16.70;99.90
19928;DHT22;10126;50.876;4.470;2023-08-06T02:03:20;16.70;99.90
19928;DHT22;10126;50.876;4.470;2023-08-06T02:05:24;16.80;99.90
19928;DHT22;10126;50.876;4.470;2023-08-06T02:07:27;17.00;99.90
19928;DHT22;10126;50.876;4.470;2023-08-06T02:09:30;16.90;99.90
19928;DHT22;10126;50.876;4.470;2023-08-06T02:11:33;16.90;99.90
19928;DHT22;10126;50.876;4.470;2023-08-06T02:16:20;16.80;99.90
19928;DHT22;10126;50.876;4.470;2023-08-06T02:18:30;16.70;99.90
19928;DHT22;10126;50.876;4.470;2023-08-06T02:20:58;16.70;99.90
19928;DHT22;10126;50.876;4.470;2023-08-06T02:23:03;16.70;99.90
19928;DHT22;10126;50.876;4.470;2023-08-06T02:25:07;16.70;99.90
19928;DHT22;10126;50.876;4.470;2023-08-06T02:27:07;16.80;99.90
19928;DHT22;10126;50.876;4.470;2023-08-06T02:29:09;16.80;99.90
19928;DHT22;10126;50.876;4.470;2023-08-06T02:31:09;16.70;99.90
19928;DHT22;10126;50.876;4.470;2023-08-06T02:33:10;16.60;99.90
19928;DHT22;10126;50.876;4.470;2023-08-06T02:35:11;16.70;99.90
19928;DHT22;10126;50.876;4.470;2023-08-06T02:37:11;16.70;99.90
19928;DHT22;10126;50.876;4.470;2023-08-06T02:39:12;16.60;99.90
19928;DHT22;10126;50.876;4.470;2023-08-06T02:41:13;16.60;99.90
19928;DHT22;10126;50.876;4.470;2023-08-06T02:43:13;16.50;99.90
19928;DHT22;10126;50.876;4.470;2023-08-06T02:45:18;16.40;99.90
19928;DHT22;10126;50.876;4.470;2023-08-06T02:47:18;16.30;99.90
19928;DHT22;10126;50.876;4.470;2023-08-06T02:49:19;16.20;99.90
19928;DHT22;10126;50.876;4.470;2023-08-06T02:51:19;16.10;99.90
19928;DHT22;10126;50.876;4.470;2023-08-06T02:53:20;15.90;99.90
19928;DHT22;10126;50.876;4.470;2023-08-06T02:55:23;16.00;99.90
19928;DHT22;10126;50.876;4.470;2023-08-06T02:57:26;16.00;99.90
19928;DHT22;10126;50.876;4.470;2023-08-06T02:59:30;15.90;99.90
19928;DHT22;10126;50.876;4.470;2023-08-06T03:01:31;15.70;99.90
19928;DHT22;10126;50.876;4.470;2023-08-06T03:03:32;15.80;99.90
19928;DHT22;10126;50.876;4.470;2023-08-06T03:05:35;15.90;99.90
19928;DHT22;10126;50.876;4.470;2023-08-06T03:07:36;15.80;99.90
19928;DHT22;10126;50.876;4.470;2023-08-06T03:09:37;15.90;99.90
19928;DHT22;10126;50.876;4.470;2023-08-06T03:11:38;15.80;99.90
19928;DHT22;10126;50.876;4.470;2023-08-06T03:13:39;15.80;99.90
19928;DHT22;10126;50.876;4.470;2023-08-06T03:15:39;15.90;99.90
19928;DHT22;10126;50.876;4.470;2023-08-06T03:17:40;15.80;99.90
19928;DHT22;10126;50.876;4.470;2023-08-06T03:19:41;15.90;99.90
19928;DHT22;10126;50.876;4.470;2023-08-06T03:21:41;15.70;99.90
19928;DHT22;10126;50.876;4.470;2023-08-06T03:23:42;15.60;99.90
19928;DHT22;10126;50.876;4.470;2023-08-06T03:25:45;15.70;99.90
19928;DHT22;10126;50.876;4.470;2023-08-06T03:27:46;15.60;99.90
19928;DHT22;10126;50.876;4.470;2023-08-06T03:29:49;15.70;99.90
19928;DHT22;10126;50.876;4.470;2023-08-06T03:31:52;15.70;99.90
19928;DHT22;10126;50.876;4.470;2023-08-06T03:33:52;15.80;99.90
19928;DHT22;10126;50.876;4.470;2023-08-06T03:35:53;15.60;99.90
19928;DHT22;10126;50.876;4.470;2023-08-06T03:37:53;15.60;99.90
19928;DHT22;10126;50.876;4.470;2023-08-06T03:39:54;15.70;99.90
19928;DHT22;10126;50.876;4.470;2023-08-06T03:41:55;15.90;99.90
19928;DHT22;10126;50.876;4.470;2023-08-06T03:43:57;15.80;99.90
19928;DHT22;10126;50.876;4.470;2023-08-06T03:45:58;15.80;99.90
19928;DHT22;10126;50.876;4.470;2023-08-06T03:47:59;15.80;99.90
19928;DHT22;10126;50.876;4.470;2023-08-06T03:49:59;15.90;99.90
19928;DHT22;10126;50.876;4.470;2023-08-06T03:52:03;15.90;99.90
19928;DHT22;10126;50.876;4.470;2023-08-06T03:54:06;15.80;99.90
19928;DHT22;10126;50.876;4.470;2023-08-06T03:56:09;15.80;99.90
19928;DHT22;10126;50.876;4.470;2023-08-06T03:58:09;15.70;99.90
19928;DHT22;10126;50.876;4.470;2023-08-06T04:00:10;15.70;99.90
19928;DHT22;10126;50.876;4.470;2023-08-06T04:02:14;15.80;99.90
19928;DHT22;10126;50.876;4.470;2023-08-06T04:04:15;15.80;99.90
19928;DHT22;10126;50.876;4.470;2023-08-06T04:06:16;15.60;99.90
19928;DHT22;10126;50.876;4.470;2023-08-06T04:08:16;15.70;99.90
19928;DHT22;10126;50.876;4.470;2023-08-06T04:10:20;15.70;99.90
19928;DHT22;10126;50.876;4.470;2023-08-06T04:12:26;15.80;99.90
19928;DHT22;10126;50.876;4.470;2023-08-06T04:14:28;15.80;99.90
19928;DHT22;10126;50.876;4.470;2023-08-06T04:16:28;15.70;99.90
19928;DHT22;10126;50.876;4.470;2023-08-06T04:18:29;15.60;99.90
19928;DHT22;10126;50.876;4.470;2023-08-06T04:20:30;15.60;99.90
19928;DHT22;10126;50.876;4.470;2023-08-06T04:22:30;15.50;99.90
19928;DHT22;10126;50.876;4.470;2023-08-06T04:24:31;15.40;99.90
19928;DHT22;10126;50.876;4.470;2023-08-06T04:26:32;15.40;99.90
19928;DHT22;10126;50.876;4.470;2023-08-06T04:28:32;15.40;99.90
19928;DHT22;10126;50.876;4.470;2023-08-06T04:30:37;15.30;99.90
19928;DHT22;10126;50.876;4.470;2023-08-06T04:32:40;15.30;99.90
19928;DHT22;10126;50.876;4.470;2023-08-06T04:34:40;15.20;99.90
19928;DHT22;10126;50.876;4.470;2023-08-06T04:36:41;15.10;99.90
19928;DHT22;10126;50.876;4.470;2023-08-06T04:38:42;15.20;99.90
19928;DHT22;10126;50.876;4.470;2023-08-06T04:40:45;15.00;99.90
19928;DHT22;10126;50.876;4.470;2023-08-06T04:42:46;14.90;99.90
19928;DHT22;10126;50.876;4.470;2023-08-06T04:44:46;14.70;99.90
19928;DHT22;10126;50.876;4.470;2023-08-06T04:46:47;14.60;99.90
19928;DHT22;10126;50.876;4.470;2023-08-06T04:48:50;14.50;99.90
19928;DHT22;10126;50.876;4.470;2023-08-06T04:50:50;14.40;99.90
19928;DHT22;10126;50.876;4.470;2023-08-06T04:52:51;14.40;99.90
19928;DHT22;10126;50.876;4.470;2023-08-06T04:54:52;14.30;99.90
19928;DHT22;10126;50.876;4.470;2023-08-06T04:56:55;14.30;99.90
19928;DHT22;10126;50.876;4.470;2023-08-06T04:58:55;14.20;99.90
19928;DHT22;10126;50.876;4.470;2023-08-06T05:00:56;14.30;99.90
19928;DHT22;10126;50.876;4.470;2023-08-06T05:02:59;14.20;99.90
19928;DHT22;10126;50.876;4.470;2023-08-06T05:05:00;14.20;99.90
19928;DHT22;10126;50.876;4.470;2023-08-06T05:07:00;14.10;99.90
19928;DHT22;10126;50.876;4.470;2023-08-06T05:09:01;14.10;99.90
19928;DHT22;10126;50.876;4.470;2023-08-06T05:11:02;14.20;99.90
19928;DHT22;10126;50.876;4.470;2023-08-06T05:13:02;14.10;99.90
19928;DHT22;10126;50.876;4.470;2023-08-06T05:15:03;14.10;99.90
19928;DHT22;10126;50.876;4.470;2023-08-06T05:17:04;14.10;99.90
19928;DHT22;10126;50.876;4.470;2023-08-06T05:19:05;14.10;99.90
19928;DHT22;10126;50.876;4.470;2023-08-06T05:21:05;14.10;99.90
19928;DHT22;10126;50.876;4.470;2023-08-06T05:23:06;14.10;99.90
19928;DHT22;10126;50.876;4.470;2023-08-06T05:25:07;14.10;99.90
19928;DHT22;10126;50.876;4.470;2023-08-06T05:27:10;14.10;99.90
19928;DHT22;10126;50.876;4.470;2023-08-06T05:29:11;14.20;99.90
19928;DHT22;10126;50.876;4.470;2023-08-06T05:31:12;14.20;99.90
19928;DHT22;10126;50.876;4.470;2023-08-06T05:33:12;14.20;99.90
19928;DHT22;10126;50.876;4.470;2023-08-06T05:35:13;14.30;99.90
19928;DHT22;10126;50.876;4.470;2023-08-06T05:37:14;14.30;99.90
19928;DHT22;10126;50.876;4.470;2023-08-06T05:39:17;14.40;99.90
19928;DHT22;10126;50.876;4.470;2023-08-06T05:41:21;14.30;99.90
19928;DHT22;10126;50.876;4.470;2023-08-06T05:43:22;14.30;99.90
19928;DHT22;10126;50.876;4.470;2023-08-06T05:45:22;14.30;99.90
19928;DHT22;10126;50.876;4.470;2023-08-06T05:47:23;14.40;99.90
19928;DHT22;10126;50.876;4.470;2023-08-06T05:49:24;14.30;99.90
19928;DHT22;10126;50.876;4.470;2023-08-06T05:51:27;14.40;99.90
19928;DHT22;10126;50.876;4.470;2023-08-06T05:53:28;14.40;99.90
19928;DHT22;10126;50.876;4.470;2023-08-06T05:55:29;14.40;99.90
19928;DHT22;10126;50.876;4.470;2023-08-06T05:57:31;14.50;99.90
19928;DHT22;10126;50.876;4.470;2023-08-06T05:59:32;14.50;99.90
19928;DHT22;10126;50.876;4.470;2023-08-06T06:01:33;14.50;99.90
19928;DHT22;10126;50.876;4.470;2023-08-06T06:03:33;14.50;99.90
19928;DHT22;10126;50.876;4.470;2023-08-06T06:05:34;14.60;99.90
19928;DHT22;10126;50.876;4.470;2023-08-06T06:07:37;14.50;99.90
19928;DHT22;10126;50.876;4.470;2023-08-06T06:09:37;14.60;99.90
19928;DHT22;10126;50.876;4.470;2023-08-06T06:11:42;14.60;99.90
19928;DHT22;10126;50.876;4.470;2023-08-06T06:13:43;14.60;99.90
19928;DHT22;10126;50.876;4.470;2023-08-06T06:15:44;14.50;99.90
19928;DHT22;10126;50.876;4.470;2023-08-06T06:17:46;14.60;99.90
19928;DHT22;10126;50.876;4.470;2023-08-06T06:19:47;14.60;99.90
19928;DHT22;10126;50.876;4.470;2023-08-06T06:21:50;14.50;99.90
19928;DHT22;10126;50.876;4.470;2023-08-06T06:23:51;14.50;99.90
19928;DHT22;10126;50.876;4.470;2023-08-06T06:25:52;14.60;99.90
19928;DHT22;10126;50.876;4.470;2023-08-06T06:27:52;14.70;99.90
19928;DHT22;10126;50.876;4.470;2023-08-06T06:29:53;14.70;99.90
19928;DHT22;10126;50.876;4.470;2023-08-06T06:31:55;14.60;99.90
19928;DHT22;10126;50.876;4.470;2023-08-06T06:33:55;14.60;99.90
19928;DHT22;10126;50.876;4.470;2023-08-06T06:35:56;14.60;99.90
19928;DHT22;10126;50.876;4.470;2023-08-06T06:37:57;14.60;99.90
19928;DHT22;10126;50.876;4.470;2023-08-06T06:40:02;14.60;99.90
19928;DHT22;10126;50.876;4.470;2023-08-06T06:42:05;14.40;99.90
19928;DHT22;10126;50.876;4.470;2023-08-06T06:44:07;14.60;99.90
19928;DHT22;10126;50.876;4.470;2023-08-06T06:46:08;14.60;99.90
19928;DHT22;10126;50.876;4.470;2023-08-06T06:48:08;14.70;99.90
19928;DHT22;10126;50.876;4.470;2023-08-06T06:50:09;14.70;99.90
19928;DHT22;10126;50.876;4.470;2023-08-06T06:52:10;14.80;99.90
19928;DHT22;10126;50.876;4.470;2023-08-06T06:54:11;14.80;99.90
19928;DHT22;10126;50.876;4.470;2023-08-06T06:56:14;14.80;99.90
19928;DHT22;10126;50.876;4.470;2023-08-06T06:58:17;14.90;99.90
19928;DHT22;10126;50.876;4.470;2023-08-06T07:00:18;15.10;99.90
19928;DHT22;10126;50.876;4.470;2023-08-06T07:02:18;15.30;99.90
19928;DHT22;10126;50.876;4.470;2023-08-06T07:04:19;15.30;99.90
19928;DHT22;10126;50.876;4.470;2023-08-06T07:06:20;15.20;99.90
19928;DHT22;10126;50.876;4.470;2023-08-06T07:08:20;15.20;99.90
19928;DHT22;10126;50.876;4.470;2023-08-06T07:10:21;15.00;99.90
19928;DHT22;10126;50.876;4.470;2023-08-06T07:12:22;15.00;99.90
19928;DHT22;10126;50.876;4.470;2023-08-06T07:14:28;15.00;99.90
19928;DHT22;10126;50.876;4.470;2023-08-06T07:16:29;14.90;99.90
19928;DHT22;10126;50.876;4.470;2023-08-06T07:18:30;14.80;99.90
19928;DHT22;10126;50.876;4.470;2023-08-06T07:20:36;14.80;99.90
19928;DHT22;10126;50.876;4.470;2023-08-06T07:22:37;14.70;99.90
19928;DHT22;10126;50.876;4.470;2023-08-06T07:24:40;14.60;99.90
19928;DHT22;10126;50.876;4.470;2023-08-06T07:26:43;14.70;99.90
19928;DHT22;10126;50.876;4.470;2023-08-06T07:28:44;14.70;99.90
19928;DHT22;10126;50.876;4.470;2023-08-06T07:30:45;14.70;99.90
19928;DHT22;10126;50.876;4.470;2023-08-06T07:32:46;14.80;99.90
19928;DHT22;10126;50.876;4.470;2023-08-06T07:34:47;14.70;99.90
19928;DHT22;10126;50.876;4.470;2023-08-06T07:36:47;14.70;99.90
19928;DHT22;10126;50.876;4.470;2023-08-06T07:38:48;14.70;99.90
19928;DHT22;10126;50.876;4.470;2023-08-06T07:40:51;14.80;99.90
19928;DHT22;10126;50.876;4.470;2023-08-06T07:42:52;14.70;99.90
19928;DHT22;10126;50.876;4.470;2023-08-06T07:44:57;14.80;99.90
19928;DHT22;10126;50.876;4.470;2023-08-06T07:47:01;14.80;99.90
19928;DHT22;10126;50.876;4.470;2023-08-06T07:49:01;15.00;99.90
19928;DHT22;10126;50.876;4.470;2023-08-06T07:51:03;15.20;99.90
19928;DHT22;10126;50.876;4.470;2023-08-06T07:53:06;15.40;99.90
19928;DHT22;10126;50.876;4.470;2023-08-06T07:55:07;15.70;99.90
19928;DHT22;10126;50.876;4.470;2023-08-06T07:57:07;15.90;99.90
19928;DHT22;10126;50.876;4.470;2023-08-06T07:59:08;16.00;99.90
19928;DHT22;10126;50.876;4.470;2023-08-06T08:01:09;16.10;99.90
19928;DHT22;10126;50.876;4.470;2023-08-06T08:03:10;16.30;99.90
19928;DHT22;10126;50.876;4.470;2023-08-06T08:05:10;16.90;99.90
19928;DHT22;10126;50.876;4.470;2023-08-06T08:07:11;17.10;99.90
19928;DHT22;10126;50.876;4.470;2023-08-06T08:09:12;17.00;99.90
19928;DHT22;10126;50.876;4.470;2023-08-06T08:11:14;16.90;99.90
19928;DHT22;10126;50.876;4.470;2023-08-06T08:13:16;16.70;99.90
19928;DHT22;10126;50.876;4.470;2023-08-06T08:15:17;16.70;99.90
19928;DHT22;10126;50.876;4.470;2023-08-06T08:17:18;16.80;99.90
19928;DHT22;10126;50.876;4.470;2023-08-06T08:19:18;16.70;99.90
19928;DHT22;10126;50.876;4.470;2023-08-06T08:21:20;16.60;99.90
19928;DHT22;10126;50.876;4.470;2023-08-06T08:23:20;16.50;99.90
19928;DHT22;10126;50.876;4.470;2023-08-06T08:25:21;16.40;99.90
19928;DHT22;10126;50.876;4.470;2023-08-06T08:27:21;16.30;99.90
19928;DHT22;10126;50.876;4.470;2023-08-06T08:29:22;16.00;99.90
19928;DHT22;10126;50.876;4.470;2023-08-06T08:31:23;15.80;99.90
19928;DHT22;10126;50.876;4.470;2023-08-06T08:33:24;15.50;99.90
19928;DHT22;10126;50.876;4.470;2023-08-06T08:35:25;15.30;99.90
19928;DHT22;10126;50.876;4.470;2023-08-06T08:37:25;15.20;99.90
19928;DHT22;10126;50.876;4.470;2023-08-06T08:39:26;15.00;99.90
19928;DHT22;10126;50.876;4.470;2023-08-06T08:41:33;15.00;99.90
19928;DHT22;10126;50.876;4.470;2023-08-06T08:43:35;15.10;99.90
19928;DHT22;10126;50.876;4.470;2023-08-06T08:45:39;15.20;99.90
19928;DHT22;10126;50.876;4.470;2023-08-06T08:47:43;15.50;99.90
19928;DHT22;10126;50.876;4.470;2023-08-06T08:49:44;15.60;99.90
19928;DHT22;10126;50.876;4.470;2023-08-06T08:51:46;15.70;99.90
19928;DHT22;10126;50.876;4.470;2023-08-06T08:53:49;15.70;99.90
19928;DHT22;10126;50.876;4.470;2023-08-06T08:55:53;16.00;99.90
19928;DHT22;10126;50.876;4.470;2023-08-06T08:57:53;16.10;99.90
19928;DHT22;10126;50.876;4.470;2023-08-06T08:59:54;16.10;99.90
19928;DHT22;10126;50.876;4.470;2023-08-06T09:01:55;16.50;99.90
19928;DHT22;10126;50.876;4.470;2023-08-06T09:03:57;16.40;99.90
19928;DHT22;10126;50.876;4.470;2023-08-06T09:05:59;16.20;99.90
19928;DHT22;10126;50.876;4.470;2023-08-06T09:08:03;16.40;99.90
19928;DHT22;10126;50.876;4.470;2023-08-06T09:10:05;16.30;99.90
19928;DHT22;10126;50.876;4.470;2023-08-06T09:12:17;16.30;99.90
19928;DHT22;10126;50.876;4.470;2023-08-06T09:14:17;16.50;99.90
19928;DHT22;10126;50.876;4.470;2023-08-06T09:16:18;16.30;99.90
19928;DHT22;10126;50.876;4.470;2023-08-06T09:18:30;16.20;99.90
19928;DHT22;10126;50.876;4.470;2023-08-06T09:20:34;16.20;99.90
19928;DHT22;10126;50.876;4.470;2023-08-06T09:22:35;16.20;99.90
19928;DHT22;10126;50.876;4.470;2023-08-06T09:24:38;16.10;99.90
19928;DHT22;10126;50.876;4.470;2023-08-06T09:26:41;15.90;99.90
19928;DHT22;10126;50.876;4.470;2023-08-06T09:28:45;15.80;99.90
19928;DHT22;10126;50.876;4.470;2023-08-06T09:30:47;15.50;99.90
19928;DHT22;10126;50.876;4.470;2023-08-06T09:32:49;15.30;99.90
19928;DHT22;10126;50.876;4.470;2023-08-06T09:34:56;15.00;99.90
19928;DHT22;10126;50.876;4.470;2023-08-06T09:36:57;14.90;99.90
19928;DHT22;10126;50.876;4.470;2023-08-06T09:39:17;14.80;99.90
19928;DHT22;10126;50.876;4.470;2023-08-06T09:41:27;14.70;99.90
19928;DHT22;10126;50.876;4.470;2023-08-06T09:43:39;14.80;99.90
19928;DHT22;10126;50.876;4.470;2023-08-06T09:45:40;14.80;99.90
19928;DHT22;10126;50.876;4.470;2023-08-06T09:47:40;14.80;99.90
19928;DHT22;10126;50.876;4.470;2023-08-06T09:49:42;14.90;99.90
19928;DHT22;10126;50.876;4.470;2023-08-06T09:51:43;14.80;99.90
19928;DHT22;10126;50.876;4.470;2023-08-06T09:53:47;14.70;99.90
19928;DHT22;10126;50.876;4.470;2023-08-06T09:55:48;14.80;99.90
19928;DHT22;10126;50.876;4.470;2023-08-06T09:57:49;14.80;99.90
19928;DHT22;10126;50.876;4.470;2023-08-06T09:59:51;14.70;99.90
19928;DHT22;10126;50.876;4.470;2023-08-06T10:01:54;14.70;99.90
19928;DHT22;10126;50.876;4.470;2023-08-06T10:03:58;14.70;99.90
19928;DHT22;10126;50.876;4.470;2023-08-06T10:05:58;14.70;99.90
19928;DHT22;10126;50.876;4.470;2023-08-06T10:08:03;14.50;99.90
19928;DHT22;10126;50.876;4.470;2023-08-06T10:10:06;14.50;99.90
19928;DHT22;10126;50.876;4.470;2023-08-06T10:12:07;14.50;99.90
19928;DHT22;10126;50.876;4.470;2023-08-06T10:14:14;14.60;99.90
19928;DHT22;10126;50.876;4.470;2023-08-06T10:16:16;14.50;99.90
19928;DHT22;10126;50.876;4.470;2023-08-06T10:18:21;14.50;99.90
19928;DHT22;10126;50.876;4.470;2023-08-06T10:20:23;14.50;99.90
19928;DHT22;10126;50.876;4.470;2023-08-06T10:22:24;14.50;99.90
19928;DHT22;10126;50.876;4.470;2023-08-06T10:24:27;14.50;99.90
19928;DHT22;10126;50.876;4.470;2023-08-06T10:26:28;14.50;99.90
19928;DHT22;10126;50.876;4.470;2023-08-06T10:28:38;14.60;99.90
19928;DHT22;10126;50.876;4.470;2023-08-06T10:30:46;14.60;99.90
19928;DHT22;10126;50.876;4.470;2023-08-06T10:32:48;14.60;99.90
19928;DHT22;10126;50.876;4.470;2023-08-06T10:34:59;14.70;99.90
19928;DHT22;10126;50.876;4.470;2023-08-06T10:37:01;14.90;99.90
19928;DHT22;10126;50.876;4.470;2023-08-06T10:39:04;14.90;99.90
19928;DHT22;10126;50.876;4.470;2023-08-06T10:41:05;14.90;99.90
19928;DHT22;10126;50.876;4.470;2023-08-06T10:43:06;14.90;99.90
19928;DHT22;10126;50.876;4.470;2023-08-06T10:45:15;14.90;99.90
19928;DHT22;10126;50.876;4.470;2023-08-06T10:47:26;15.00;99.90
19928;DHT22;10126;50.876;4.470;2023-08-06T10:49:28;14.80;99.90
19928;DHT22;10126;50.876;4.470;2023-08-06T10:51:31;14.70;99.90
19928;DHT22;10126;50.876;4.470;2023-08-06T10:53:32;14.70;99.90
19928;DHT22;10126;50.876;4.470;2023-08-06T10:55:32;14.60;99.90
19928;DHT22;10126;50.876;4.470;2023-08-06T10:57:33;14.70;99.90
19928;DHT22;10126;50.876;4.470;2023-08-06T10:59:34;14.70;99.90
19928;DHT22;10126;50.876;4.470;2023-08-06T11:01:38;14.70;99.90
19928;DHT22;10126;50.876;4.470;2023-08-06T11:03:40;14.80;99.90
19928;DHT22;10126;50.876;4.470;2023-08-06T11:05:40;14.70;99.90
19928;DHT22;10126;50.876;4.470;2023-08-06T11:07:44;14.60;99.90
19928;DHT22;10126;50.876;4.470;2023-08-06T11:09:44;14.60;99.90
19928;DHT22;10126;50.876;4.470;2023-08-06T11:11:50;14.60;99.90
19928;DHT22;10126;50.876;4.470;2023-08-06T11:13:51;14.60;99.90
19928;DHT22;10126;50.876;4.470;2023-08-06T11:15:52;14.70;99.90
19928;DHT22;10126;50.876;4.470;2023-08-06T11:17:54;14.80;99.90
19928;DHT22;10126;50.876;4.470;2023-08-06T11:19:55;14.90;99.90
19928;DHT22;10126;50.876;4.470;2023-08-06T11:21:56;14.90;99.90
19928;DHT22;10126;50.876;4.470;2023-08-06T11:23:57;14.80;99.90
19928;DHT22;10126;50.876;4.470;2023-08-06T11:25:58;14.80;99.90
19928;DHT22;10126;50.876;4.470;2023-08-06T11:28:03;14.80;99.90
19928;DHT22;10126;50.876;4.470;2023-08-06T11:30:04;14.80;99.90
19928;DHT22;10126;50.876;4.470;2023-08-06T11:32:06;14.70;99.90
19928;DHT22;10126;50.876;4.470;2023-08-06T11:34:06;14.70;99.90
19928;DHT22;10126;50.876;4.470;2023-08-06T11:36:12;14.70;99.90
19928;DHT22;10126;50.876;4.470;2023-08-06T11:38:13;14.70;99.90
19928;DHT22;10126;50.876;4.470;2023-08-06T11:40:15;14.60;99.90
19928;DHT22;10126;50.876;4.470;2023-08-06T11:42:18;14.60;99.90
19928;DHT22;10126;50.876;4.470;2023-08-06T11:44:19;14.50;99.90
19928;DHT22;10126;50.876;4.470;2023-08-06T11:46:28;14.50;99.90
19928;DHT22;10126;50.876;4.470;2023-08-06T11:48:28;14.40;99.90
19928;DHT22;10126;50.876;4.470;2023-08-06T11:50:38;14.50;99.90
19928;DHT22;10126;50.876;4.470;2023-08-06T11:52:39;14.40;99.90
19928;DHT22;10126;50.876;4.470;2023-08-06T11:55:02;14.50;99.90
19928;DHT22;10126;50.876;4.470;2023-08-06T11:57:12;14.60;99.90
19928;DHT22;10126;50.876;4.470;2023-08-06T11:59:22;14.70;99.90
19928;DHT22;10126;50.876;4.470;2023-08-06T12:01:23;14.80;99.90
19928;DHT22;10126;50.876;4.470;2023-08-06T12:03:24;15.00;99.90
19928;DHT22;10126;50.876;4.470;2023-08-06T12:05:32;15.10;99.90
19928;DHT22;10126;50.876;4.470;2023-08-06T12:07:44;15.40;99.90
19928;DHT22;10126;50.876;4.470;2023-08-06T12:09:48;15.60;99.90
19928;DHT22;10126;50.876;4.470;2023-08-06T12:11:49;15.50;99.90
19928;DHT22;10126;50.876;4.470;2023-08-06T12:13:54;15.50;99.90
19928;DHT22;10126;50.876;4.470;2023-08-06T12:15:58;15.50;99.90
19928;DHT22;10126;50.876;4.470;2023-08-06T12:17:59;15.60;99.90
19928;DHT22;10126;50.876;4.470;2023-08-06T12:20:00;15.70;99.90
19928;DHT22;10126;50.876;4.470;2023-08-06T12:22:00;15.90;99.90
19928;DHT22;10126;50.876;4.470;2023-08-06T12:24:01;15.90;99.90
19928;DHT22;10126;50.876;4.470;2023-08-06T12:26:04;15.90;99.90
19928;DHT22;10126;50.876;4.470;2023-08-06T12:28:04;16.00;99.90
19928;DHT22;10126;50.876;4.470;2023-08-06T12:30:07;16.10;99.90
19928;DHT22;10126;50.876;4.470;2023-08-06T12:32:08;16.20;99.90
19928;DHT22;10126;50.876;4.470;2023-08-06T12:34:08;16.30;99.90
19928;DHT22;10126;50.876;4.470;2023-08-06T12:36:09;16.30;99.90
19928;DHT22;10126;50.876;4.470;2023-08-06T12:38:09;16.50;99.90
19928;DHT22;10126;50.876;4.470;2023-08-06T12:40:13;16.60;99.90
19928;DHT22;10126;50.876;4.470;2023-08-06T12:42:13;16.50;99.90
19928;DHT22;10126;50.876;4.470;2023-08-06T12:44:14;16.30;99.90
19928;DHT22;10126;50.876;4.470;2023-08-06T12:46:15;16.10;99.90
19928;DHT22;10126;50.876;4.470;2023-08-06T12:48:15;16.00;99.90
19928;DHT22;10126;50.876;4.470;2023-08-06T12:50:16;15.90;99.90
19928;DHT22;10126;50.876;4.470;2023-08-06T12:52:17;15.80;99.90
19928;DHT22;10126;50.876;4.470;2023-08-06T12:54:23;15.60;99.90
19928;DHT22;10126;50.876;4.470;2023-08-06T12:56:23;15.60;99.90
19928;DHT22;10126;50.876;4.470;2023-08-06T12:58:36;15.50;99.90